Time;durP1;ratioP1;P1;durP2;ratioP2;P2;SDS_P1;SDS_P2;PMS_P1;PMS_P2;Temp;Humidity;BMP_temperature;BMP_pressure;BME280_temperature;BME280_humidity;BME280_pressure;Samples;Min_cycle;Max_cycle;Signal;HPM_P1;HPM_P2
2024/01/03 00:01:39;;;;;;;13.25;3.28;;;11.60;99.90;;;;;;5033675;28;20029;-82
2024/01/03 00:04:07;;;;;;;15.60;3.63;;;11.50;99.90;;;;;;5033205;28;20032;-82
2024/01/03 00:06:33;;;;;;;13.98;3.20;;;11.50;99.90;;;;;;5034533;28;20175;-82
2024/01/03 00:09:00;;;;;;;10.60;3.10;;;11.50;99.90;;;;;;5033129;28;20072;-82
2024/01/03 00:11:29;;;;;;;13.43;2.53;;;11.50;99.90;;;;;;5049226;28;20017;-83
2024/01/03 00:14:17;;;;;;;9.00;2.50;;;11.50;99.90;;;;;;5033177;28;20533;-82
2024/01/03 00:16:43;;;;;;;11.55;2.65;;;11.50;99.90;;;;;;5032778;28;20163;-83
2024/01/03 00:19:20;;;;;;;10.48;2.55;;;11.50;99.90;;;;;;5032583;28;20113;-82
2024/01/03 00:21:46;;;;;;;13.40;3.28;;;11.50;99.90;;;;;;5032904;28;20056;-82
2024/01/03 00:24:16;;;;;;;11.60;2.42;;;11.60;99.90;;;;;;5032724;28;20025;-82
2024/01/03 00:26:41;;;;;;;10.88;2.80;;;11.60;99.90;;;;;;5034511;28;20029;-82
2024/01/03 00:29:22;;;;;;;12.68;3.15;;;11.60;99.90;;;;;;5032567;28;20029;-82
2024/01/03 00:31:48;;;;;;;14.07;3.35;;;11.60;99.90;;;;;;5034323;28;20033;-82
2024/01/03 00:34:23;;;;;;;11.32;3.00;;;11.60;99.90;;;;;;5033850;28;20369;-82
2024/01/03 00:36:53;;;;;;;12.07;2.92;;;11.60;99.90;;;;;;5032601;28;20116;-82
2024/01/03 00:39:26;;;;;;;15.07;3.13;;;11.60;99.90;;;;;;5016122;28;20470;-82
2024/01/03 00:41:53;;;;;;;12.13;3.30;;;11.50;99.90;;;;;;5032685;28;20040;-82
2024/01/03 00:44:18;;;;;;;11.95;2.72;;;11.50;99.90;;;;;;5033920;28;20029;-82
2024/01/03 00:46:44;;;;;;;11.65;2.80;;;11.50;99.90;;;;;;5032897;28;20033;-82
2024/01/03 00:49:11;;;;;;;14.05;2.88;;;11.50;99.90;;;;;;5048704;28;20030;-82
2024/01/03 00:51:37;;;;;;;11.68;2.45;;;11.50;99.90;;;;;;5033780;28;20083;-82
2024/01/03 00:54:03;;;;;;;11.85;3.05;;;11.50;99.90;;;;;;5032524;28;20032;-82
2024/01/03 00:56:29;;;;;;;11.60;2.97;;;11.50;99.90;;;;;;5031789;28;20120;-82
2024/01/03 00:58:54;;;;;;;8.90;2.22;;;11.50;99.90;;;;;;5032750;28;20117;-82
2024/01/03 01:01:20;;;;;;;13.80;3.50;;;11.60;99.90;;;;;;5032052;28;20088;-82
2024/01/03 01:03:46;;;;;;;14.45;3.22;;;11.50;99.90;;;;;;5032263;28;20044;-82
2024/01/03 01:06:12;;;;;;;15.60;3.50;;;11.50;99.90;;;;;;5015999;28;20033;-82
2024/01/03 01:08:38;;;;;;;8.98;2.33;;;11.50;99.90;;;;;;5016503;28;20041;-82
2024/01/03 01:11:03;;;;;;;9.48;2.75;;;11.50;99.90;;;;;;5018432;28;20088;-81
2024/01/03 01:13:35;;;;;;;9.35;2.90;;;11.60;99.90;;;;;;5039763;28;20021;-82
2024/01/03 01:16:01;;;;;;;11.77;2.50;;;11.50;99.90;;;;;;5057293;28;20017;-81
2024/01/03 01:18:26;;;;;;;14.10;3.05;;;11.50;99.90;;;;;;5039880;28;20025;-82
2024/01/03 01:20:52;;;;;;;18.02;3.05;;;11.50;99.90;;;;;;5053132;28;20089;-81
2024/01/03 01:23:17;;;;;;;13.07;3.38;;;11.50;99.90;;;;;;5034655;28;20078;-82
2024/01/03 01:25:43;;;;;;;17.77;3.70;;;11.50;99.90;;;;;;5032581;28;20030;-83
2024/01/03 01:28:09;;;;;;;13.35;3.75;;;11.50;99.90;;;;;;5049068;28;20041;-82
2024/01/03 01:30:34;;;;;;;15.18;3.55;;;11.50;99.90;;;;;;5031951;28;20147;-82
2024/01/03 01:33:00;;;;;;;13.48;3.53;;;11.50;99.90;;;;;;5032356;28;20524;-82
2024/01/03 01:35:25;;;;;;;18.60;3.67;;;11.50;99.90;;;;;;5015338;28;20029;-82
2024/01/03 01:37:51;;;;;;;18.77;3.58;;;11.50;99.90;;;;;;5033454;28;20063;-82
2024/01/03 01:40:17;;;;;;;16.52;3.25;;;11.50;99.90;;;;;;5031739;28;20029;-82
2024/01/03 01:42:44;;;;;;;17.73;3.85;;;11.50;99.90;;;;;;5031651;28;20057;-82
2024/01/03 01:45:09;;;;;;;14.65;3.70;;;11.50;99.90;;;;;;5031935;28;20432;-82
2024/01/03 01:47:37;;;;;;;17.70;4.10;;;11.50;99.90;;;;;;5031890;28;20461;-82
2024/01/03 01:50:06;;;;;;;14.27;4.35;;;11.50;99.90;;;;;;5032011;28;20499;-82
2024/01/03 01:52:35;;;;;;;13.90;4.43;;;11.50;99.90;;;;;;5031547;28;20084;-82
2024/01/03 01:55:01;;;;;;;15.85;3.70;;;11.50;99.90;;;;;;5032247;28;20484;-82
2024/01/03 01:57:29;;;;;;;17.65;4.13;;;11.50;99.90;;;;;;5015421;28;20117;-83
2024/01/03 01:59:55;;;;;;;18.35;3.92;;;11.50;99.90;;;;;;5033721;28;20461;-82
2024/01/03 02:02:21;;;;;;;18.17;3.83;;;11.50;99.90;;;;;;5016158;28;20065;-83
2024/01/03 02:04:47;;;;;;;15.82;3.78;;;11.50;99.90;;;;;;5032241;28;20064;-83
2024/01/03 02:07:13;;;;;;;16.50;4.07;;;11.50;99.90;;;;;;5033657;28;20688;-83
2024/01/03 02:09:41;;;;;;;17.23;4.00;;;11.50;99.90;;;;;;5019783;28;20045;-82
2024/01/03 02:12:08;;;;;;;16.90;3.88;;;11.50;99.90;;;;;;5036227;28;20033;-83
2024/01/03 02:14:33;;;;;;;14.70;3.72;;;11.50;99.90;;;;;;5035803;28;20485;-82
2024/01/03 02:16:59;;;;;;;17.67;3.72;;;11.50;99.90;;;;;;5036380;28;20044;-83
2024/01/03 02:19:25;;;;;;;18.63;4.68;;;11.50;99.90;;;;;;5052387;28;20040;-83
2024/01/03 02:21:50;;;;;;;16.55;4.05;;;11.50;99.90;;;;;;5035763;28;20456;-82
2024/01/03 02:24:16;;;;;;;20.23;4.57;;;11.50;99.90;;;;;;5019151;28;20037;-82
2024/01/03 02:26:41;;;;;;;17.15;3.85;;;11.50;99.90;;;;;;5035798;28;20030;-82
2024/01/03 02:29:07;;;;;;;20.58;4.22;;;11.50;99.90;;;;;;5036130;28;20029;-83
2024/01/03 02:31:33;;;;;;;21.42;4.50;;;11.50;99.90;;;;;;5036761;28;20116;-83
2024/01/03 02:33:58;;;;;;;17.65;4.28;;;11.50;99.90;;;;;;5036952;28;20462;-83
2024/01/03 02:36:24;;;;;;;20.95;4.65;;;11.50;99.90;;;;;;5036126;28;20079;-82
2024/01/03 02:38:52;;;;;;;16.45;3.35;;;11.50;99.90;;;;;;5037337;28;20072;-83
2024/01/03 02:41:18;;;;;;;17.35;4.18;;;11.50;99.90;;;;;;5036353;28;20469;-83
2024/01/03 02:43:43;;;;;;;23.08;4.43;;;11.50;99.90;;;;;;5040044;28;20040;-83
2024/01/03 02:46:09;;;;;;;14.13;3.60;;;11.50;99.90;;;;;;5042600;28;20024;-82
2024/01/03 02:48:39;;;;;;;16.75;4.05;;;11.40;99.90;;;;;;5055432;28;20034;-82
2024/01/03 02:51:05;;;;;;;25.47;4.07;;;11.50;99.90;;;;;;5024226;28;20100;-83
2024/01/03 02:53:31;;;;;;;20.00;4.68;;;11.50;99.90;;;;;;5037495;28;20465;-83
2024/01/03 02:55:57;;;;;;;15.50;3.75;;;11.50;99.90;;;;;;5035730;28;20033;-83
2024/01/03 02:58:23;;;;;;;20.02;4.22;;;11.40;99.90;;;;;;5035663;28;20544;-83
2024/01/03 03:00:49;;;;;;;15.68;3.90;;;11.50;99.90;;;;;;5035024;28;20037;-84
2024/01/03 03:03:14;;;;;;;21.77;4.50;;;11.40;99.90;;;;;;5034912;28;20036;-84
2024/01/03 03:05:40;;;;;;;11.27;3.25;;;11.40;99.90;;;;;;5035198;28;20370;-84
2024/01/03 03:08:06;;;;;;;19.33;4.13;;;11.40;99.90;;;;;;5035785;28;20124;-84
2024/01/03 03:10:31;;;;;;;16.38;4.10;;;11.40;99.90;;;;;;5034354;28;20469;-84
2024/01/03 03:12:57;;;;;;;11.98;2.97;;;11.40;99.90;;;;;;5034879;28;20049;-83
2024/01/03 03:15:23;;;;;;;20.55;4.13;;;11.40;99.90;;;;;;5036294;28;20099;-83
2024/01/03 03:17:49;;;;;;;18.55;4.10;;;11.40;99.90;;;;;;5017985;28;20462;-83
2024/01/03 03:20:14;;;;;;;22.20;4.63;;;11.40;99.90;;;;;;5035647;28;20033;-83
2024/01/03 03:22:40;;;;;;;19.17;4.00;;;11.40;99.90;;;;;;5018133;28;20085;-83
2024/01/03 03:25:06;;;;;;;19.85;4.68;;;11.50;99.90;;;;;;5018582;28;20032;-83
2024/01/03 03:27:32;;;;;;;13.45;4.05;;;11.40;99.90;;;;;;5035478;28;20032;-83
2024/01/03 03:29:57;;;;;;;16.13;3.97;;;11.40;99.90;;;;;;5051396;28;20465;-83
2024/01/03 03:32:23;;;;;;;13.32;3.30;;;11.40;99.90;;;;;;5035687;28;20032;-84
2024/01/03 03:34:50;;;;;;;22.55;4.70;;;11.40;99.90;;;;;;5018117;28;20028;-83
2024/01/03 03:37:16;;;;;;;14.45;3.83;;;11.40;99.90;;;;;;5034302;28;20029;-83
2024/01/03 03:39:41;;;;;;;21.42;5.15;;;11.40;99.90;;;;;;5050252;28;20033;-84
2024/01/03 03:42:07;;;;;;;19.25;4.20;;;11.40;99.90;;;;;;5035158;28;20116;-83
2024/01/03 03:44:33;;;;;;;22.77;5.05;;;11.40;99.90;;;;;;5033854;28;20029;-84
2024/01/03 03:46:58;;;;;;;19.25;4.25;;;11.40;99.90;;;;;;5033673;28;20393;-83
2024/01/03 03:49:24;;;;;;;17.63;3.50;;;11.40;99.90;;;;;;5017714;28;20029;-84
2024/01/03 03:51:49;;;;;;;18.75;4.30;;;11.30;99.90;;;;;;5017021;28;20087;-83
2024/01/03 03:54:15;;;;;;;17.58;3.90;;;11.30;99.90;;;;;;5017223;28;20036;-83
2024/01/03 03:56:41;;;;;;;13.50;3.42;;;11.30;99.90;;;;;;5033767;28;20039;-83
2024/01/03 03:59:07;;;;;;;19.27;4.35;;;11.30;99.90;;;;;;5016913;28;20046;-83
2024/01/03 04:01:35;;;;;;;23.60;4.82;;;11.30;99.90;;;;;;5033672;28;20029;-83
2024/01/03 04:04:02;;;;;;;23.15;4.65;;;11.30;99.90;;;;;;5033396;28;20036;-84
2024/01/03 04:06:28;;;;;;;18.08;3.78;;;11.30;99.90;;;;;;5034061;28;20120;-83
2024/01/03 04:08:54;;;;;;;21.75;4.38;;;11.30;99.90;;;;;;5016888;28;20520;-84
2024/01/03 04:11:20;;;;;;;22.15;5.13;;;11.30;99.90;;;;;;5017604;28;20025;-83
2024/01/03 04:13:46;;;;;;;20.30;4.50;;;11.30;99.90;;;;;;5017532;28;20117;-83
2024/01/03 04:16:11;;;;;;;16.45;4.20;;;11.30;99.90;;;;;;5020362;28;20030;-83
2024/01/03 04:18:37;;;;;;;18.55;4.22;;;11.30;99.90;;;;;;5057582;28;20021;-83
2024/01/03 04:21:06;;;;;;;19.90;5.07;;;11.30;99.90;;;;;;5036028;28;20057;-83
2024/01/03 04:23:35;;;;;;;27.33;5.45;;;11.30;99.90;;;;;;5038538;28;20068;-83
2024/01/03 04:26:01;;;;;;;16.60;4.03;;;11.30;99.90;;;;;;5020161;28;20124;-83
2024/01/03 04:28:27;;;;;;;21.05;4.88;;;11.30;99.90;;;;;;5033505;28;20072;-83
2024/01/03 04:30:52;;;;;;;20.27;4.32;;;11.20;99.90;;;;;;5032654;28;20089;-83
2024/01/03 04:33:18;;;;;;;20.08;4.72;;;11.20;99.90;;;;;;5034514;28;20109;-83
2024/01/03 04:35:44;;;;;;;23.38;5.20;;;11.20;99.90;;;;;;5032867;28;20116;-83
2024/01/03 04:38:10;;;;;;;20.55;4.57;;;11.20;99.90;;;;;;5016403;28;20069;-83
2024/01/03 04:40:35;;;;;;;20.13;4.22;;;11.30;99.90;;;;;;5033655;28;20033;-83
2024/01/03 04:43:02;;;;;;;21.10;5.47;;;11.30;99.90;;;;;;5032941;28;20057;-84
2024/01/03 04:45:27;;;;;;;24.80;7.10;;;11.30;99.90;;;;;;5032600;28;20052;-83
2024/01/03 04:47:53;;;;;;;25.13;8.40;;;11.30;99.90;;;;;;5032788;28;20469;-84
2024/01/03 04:50:19;;;;;;;26.08;10.00;;;11.30;99.90;;;;;;5016215;28;20025;-82
2024/01/03 04:52:44;;;;;;;26.52;10.75;;;11.40;99.90;;;;;;5017289;28;20056;-83
2024/01/03 04:55:10;;;;;;;26.75;9.85;;;11.40;99.90;;;;;;5017024;28;20381;-83
2024/01/03 04:57:36;;;;;;;26.63;9.50;;;11.40;99.90;;;;;;5032272;28;20456;-83
2024/01/03 05:00:04;;;;;;;23.30;8.05;;;11.40;99.90;;;;;;5015797;28;20473;-84
2024/01/03 05:02:30;;;;;;;19.75;7.88;;;11.40;99.90;;;;;;5017030;28;20053;-83
2024/01/03 05:04:56;;;;;;;22.83;6.40;;;11.40;99.90;;;;;;5015929;28;20048;-83
2024/01/03 05:07:21;;;;;;;24.23;7.40;;;11.40;99.90;;;;;;5033166;28;20493;-83
2024/01/03 05:09:47;;;;;;;25.60;6.10;;;11.40;99.90;;;;;;5033715;28;20065;-83
2024/01/03 05:12:12;;;;;;;19.20;6.00;;;11.30;99.90;;;;;;5032844;28;20029;-83
2024/01/03 05:14:38;;;;;;;18.60;4.80;;;11.40;99.90;;;;;;5016282;28;20029;-83
2024/01/03 05:17:04;;;;;;;18.80;4.90;;;11.30;99.90;;;;;;5015842;28;20060;-83
2024/01/03 05:19:29;;;;;;;16.08;4.82;;;11.40;99.90;;;;;;5032757;28;20048;-84
2024/01/03 05:21:55;;;;;;;17.25;4.22;;;11.30;99.90;;;;;;5032439;28;20248;-84
2024/01/03 05:24:21;;;;;;;19.15;4.53;;;11.20;99.90;;;;;;5033810;28;20108;-83
2024/01/03 05:26:46;;;;;;;19.80;4.40;;;11.20;99.90;;;;;;5016007;28;20359;-83
2024/01/03 05:29:12;;;;;;;18.20;5.78;;;11.10;99.90;;;;;;5016142;28;20036;-83
2024/01/03 05:31:38;;;;;;;17.50;3.72;;;11.10;99.90;;;;;;5033929;28;20111;-84
2024/01/03 05:34:05;;;;;;;15.70;4.32;;;11.10;99.90;;;;;;5033264;28;20060;-82
2024/01/03 05:36:30;;;;;;;14.45;3.25;;;11.10;99.90;;;;;;5032460;28;20480;-82
2024/01/03 05:38:56;;;;;;;15.63;3.90;;;11.00;99.90;;;;;;5033115;28;20037;-82
2024/01/03 05:41:22;;;;;;;16.55;3.65;;;11.10;99.90;;;;;;5034242;28;20037;-82
2024/01/03 05:43:47;;;;;;;13.18;3.83;;;11.10;99.90;;;;;;5020465;28;20049;-82
2024/01/03 05:46:13;;;;;;;16.60;4.60;;;11.00;99.90;;;;;;5037329;28;20432;-82
2024/01/03 05:48:39;;;;;;;16.63;3.92;;;11.00;99.90;;;;;;5038851;28;20485;-82
2024/01/03 05:51:06;;;;;;;12.38;3.15;;;11.00;99.90;;;;;;5058173;28;20029;-83
2024/01/03 05:53:31;;;;;;;15.30;3.88;;;11.00;99.90;;;;;;5052947;28;20029;-83
2024/01/03 05:55:57;;;;;;;15.65;4.10;;;11.00;99.90;;;;;;5028503;28;20029;-83
2024/01/03 05:58:23;;;;;;;15.20;2.97;;;11.00;99.90;;;;;;5023517;28;20087;-83
2024/01/03 06:00:49;;;;;;;11.60;3.05;;;11.00;99.90;;;;;;5020576;28;20034;-83
2024/01/03 06:03:14;;;;;;;13.75;3.05;;;11.00;99.90;;;;;;5037195;28;20525;-84
2024/01/03 06:05:41;;;;;;;9.60;2.60;;;10.90;99.90;;;;;;5052060;28;20105;-84
2024/01/03 06:08:07;;;;;;;12.65;2.83;;;10.90;99.90;;;;;;5031641;28;20052;-83
2024/01/03 06:10:35;;;;;;;15.20;2.97;;;10.90;99.90;;;;;;5050224;28;20021;-83
2024/01/03 06:13:01;;;;;;;12.02;2.65;;;10.90;99.90;;;;;;5025773;28;20056;-82
2024/01/03 06:15:26;;;;;;;10.85;2.53;;;10.90;99.90;;;;;;5037603;28;20033;-82
2024/01/03 06:17:52;;;;;;;11.15;2.47;;;10.90;99.90;;;;;;5035333;28;20072;-81
2024/01/03 06:20:18;;;;;;;8.68;2.03;;;10.90;99.90;;;;;;5019084;28;20030;-82
2024/01/03 06:22:44;;;;;;;9.40;2.42;;;10.90;99.90;;;;;;5019506;28;20053;-82
2024/01/03 06:25:09;;;;;;;10.30;2.30;;;10.90;99.90;;;;;;5035195;28;20531;-82
2024/01/03 06:27:35;;;;;;;7.13;2.20;;;10.90;99.90;;;;;;5018962;28;20124;-82
2024/01/03 06:30:01;;;;;;;6.97;1.90;;;10.90;99.90;;;;;;5035345;28;20029;-82
2024/01/03 06:32:26;;;;;;;9.25;2.35;;;10.90;99.90;;;;;;5035196;28;20108;-82
2024/01/03 06:34:52;;;;;;;8.80;2.08;;;10.90;99.90;;;;;;5034670;28;20038;-82
2024/01/03 06:37:17;;;;;;;9.93;2.42;;;10.80;99.90;;;;;;5035324;28;20034;-82
2024/01/03 06:39:43;;;;;;;6.78;1.98;;;10.80;99.90;;;;;;5018030;28;20103;-82
2024/01/03 06:42:11;;;;;;;6.68;1.80;;;10.90;99.90;;;;;;5018661;28;20028;-83
2024/01/03 06:44:37;;;;;;;9.80;2.20;;;10.80;99.90;;;;;;5034937;28;20116;-87
2024/01/03 06:47:03;;;;;;;8.68;1.77;;;10.90;99.90;;;;;;5018626;28;20073;-82
2024/01/03 06:49:29;;;;;;;7.13;1.58;;;10.90;99.90;;;;;;5035077;28;20116;-84
2024/01/03 06:51:58;;;;;;;4.82;1.45;;;10.80;99.90;;;;;;5035101;28;20033;-83
2024/01/03 06:54:24;;;;;;;4.55;1.33;;;10.80;99.90;;;;;;5035311;28;20037;-83
2024/01/03 06:56:50;;;;;;;6.15;1.42;;;10.80;99.90;;;;;;5036345;28;20466;-83
2024/01/03 06:59:15;;;;;;;4.63;1.85;;;10.80;99.90;;;;;;5018468;28;20041;-83
2024/01/03 07:01:41;;;;;;;7.43;1.40;;;10.80;99.90;;;;;;5018317;28;20030;-84
2024/01/03 07:04:07;;;;;;;4.25;0.85;;;10.70;99.90;;;;;;5035680;28;20032;-84
2024/01/03 07:06:35;;;;;;;4.78;1.10;;;10.70;99.90;;;;;;5034780;28;20025;-84
2024/01/03 07:09:01;;;;;;;3.97;1.02;;;10.70;99.90;;;;;;5051751;28;20056;-83
2024/01/03 07:11:27;;;;;;;3.65;0.95;;;10.70;99.90;;;;;;5018025;28;20052;-85
2024/01/03 07:13:52;;;;;;;2.67;0.57;;;10.70;99.90;;;;;;5035441;28;20039;-84
2024/01/03 07:16:18;;;;;;;3.70;0.93;;;10.60;99.90;;;;;;5018677;28;20117;-84
2024/01/03 07:18:44;;;;;;;3.15;1.10;;;10.60;99.90;;;;;;5022659;28;20525;-84
2024/01/03 07:21:10;;;;;;;3.17;0.70;;;10.60;99.90;;;;;;5056701;28;20072;-84
2024/01/03 07:23:35;;;;;;;2.95;0.80;;;10.60;99.90;;;;;;5075801;28;20092;-84
2024/01/03 07:26:01;;;;;;;2.67;0.90;;;10.60;99.90;;;;;;5038482;28;20124;-83
2024/01/03 07:28:27;;;;;;;4.22;0.95;;;10.50;99.90;;;;;;5034507;28;20473;-83
2024/01/03 07:30:52;;;;;;;2.33;0.75;;;10.50;99.90;;;;;;5043200;28;20465;-84
2024/01/03 07:33:18;;;;;;;2.45;0.85;;;10.50;99.90;;;;;;5038409;28;20025;-84
2024/01/03 07:35:44;;;;;;;3.65;0.95;;;10.50;99.90;;;;;;5037662;28;20033;-84
2024/01/03 07:38:09;;;;;;;3.75;0.80;;;10.50;99.90;;;;;;5019678;28;20052;-84
2024/01/03 07:40:35;;;;;;;2.20;0.70;;;10.40;99.90;;;;;;5055203;28;20029;-84
2024/01/03 07:43:01;;;;;;;2.95;0.70;;;10.40;99.90;;;;;;5070534;28;20058;-83
2024/01/03 07:45:27;;;;;;;1.92;0.50;;;10.30;99.90;;;;;;5055640;28;20047;-83
2024/01/03 07:47:52;;;;;;;2.50;0.70;;;10.30;99.90;;;;;;5021033;28;20473;-84
2024/01/03 07:50:18;;;;;;;3.65;0.52;;;10.30;99.90;;;;;;5021309;28;20028;-84
2024/01/03 07:52:44;;;;;;;3.00;1.23;;;10.30;99.90;;;;;;5020923;28;20029;-83
2024/01/03 07:55:11;;;;;;;2.88;0.65;;;10.30;99.90;;;;;;5020863;28;20036;-84
2024/01/03 07:57:37;;;;;;;2.30;0.47;;;10.20;99.90;;;;;;5037496;28;20025;-84
2024/01/03 08:00:06;;;;;;;1.38;0.30;;;10.20;99.90;;;;;;5037165;28;20091;-83
2024/01/03 08:02:32;;;;;;;1.15;0.47;;;10.20;99.90;;;;;;5020714;28;20481;-84
2024/01/03 08:04:58;;;;;;;2.15;0.68;;;10.20;99.90;;;;;;5052338;28;20438;-84
2024/01/03 08:07:23;;;;;;;1.20;0.40;;;10.20;99.90;;;;;;5053467;28;20037;-84
2024/01/03 08:09:50;;;;;;;2.63;0.80;;;10.20;99.90;;;;;;5020167;28;20095;-83
2024/01/03 08:12:16;;;;;;;1.13;0.30;;;10.20;99.90;;;;;;5054788;28;20028;-84
2024/01/03 08:14:42;;;;;;;1.05;0.38;;;10.20;99.90;;;;;;5036498;28;20086;-84
2024/01/03 08:17:08;;;;;;;2.72;0.77;;;10.20;99.90;;;;;;5036377;28;20029;-84
2024/01/03 08:19:33;;;;;;;4.40;0.60;;;10.20;99.90;;;;;;5054124;28;20051;-83
2024/01/03 08:22:00;;;;;;;4.38;0.90;;;10.20;99.90;;;;;;5019753;28;20082;-84
2024/01/03 08:24:26;;;;;;;4.35;0.75;;;10.20;99.90;;;;;;5054464;28;20025;-83
2024/01/03 08:26:52;;;;;;;4.35;1.10;;;10.20;99.90;;;;;;5036571;28;20035;-85
2024/01/03 08:29:17;;;;;;;3.22;0.95;;;10.20;99.90;;;;;;5020007;28;20037;-85
2024/01/03 08:31:46;;;;;;;4.45;1.27;;;10.20;99.90;;;;;;5036545;28;20426;-83
2024/01/03 08:34:12;;;;;;;7.78;1.27;;;10.20;99.90;;;;;;5036174;28;20021;-83
2024/01/03 08:36:43;;;;;;;5.47;1.30;;;10.30;99.90;;;;;;5019957;28;20038;-83
2024/01/03 08:39:09;;;;;;;4.93;1.27;;;10.20;99.90;;;;;;5054129;28;20076;-83
2024/01/03 08:41:36;;;;;;;4.32;1.38;;;10.30;99.90;;;;;;5020446;28;20441;-83
2024/01/03 08:44:05;;;;;;;5.35;1.40;;;10.30;99.90;;;;;;5020638;28;20028;-83
2024/01/03 08:46:34;;;;;;;6.32;1.50;;;10.20;99.90;;;;;;5054600;28;20035;-83
2024/01/03 08:49:02;;;;;;;5.72;1.77;;;10.30;99.90;;;;;;5036956;28;20036;-83
2024/01/03 08:51:28;;;;;;;5.00;1.77;;;10.30;99.90;;;;;;5037700;28;20025;-83
2024/01/03 08:53:53;;;;;;;6.18;1.80;;;10.30;99.90;;;;;;5036160;28;20021;-83
2024/01/03 08:56:19;;;;;;;4.97;1.50;;;10.30;99.90;;;;;;5077234;28;20013;-83
2024/01/03 08:58:47;;;;;;;2.50;1.23;;;10.30;99.90;;;;;;5070012;28;20040;-83
2024/01/03 09:01:16;;;;;;;6.00;1.85;;;10.30;99.90;;;;;;5065218;28;20036;-83
2024/01/03 09:03:43;;;;;;;4.18;1.52;;;10.40;99.90;;;;;;5054825;28;20071;-83
2024/01/03 09:06:08;;;;;;;4.13;1.60;;;10.40;99.90;;;;;;5019705;28;20028;-83
2024/01/03 09:08:34;;;;;;;5.72;2.00;;;10.40;99.90;;;;;;5036142;28;20437;-83
2024/01/03 09:11:00;;;;;;;3.65;1.40;;;10.40;99.90;;;;;;5036217;28;20032;-83
2024/01/03 09:13:25;;;;;;;4.97;2.00;;;10.50;99.90;;;;;;5019007;28;20083;-83
2024/01/03 09:15:52;;;;;;;6.15;1.67;;;10.50;99.90;;;;;;5019193;28;20029;-83
2024/01/03 09:18:17;;;;;;;3.85;2.28;;;10.60;99.90;;;;;;5018965;28;20131;-83
2024/01/03 09:20:43;;;;;;;5.03;1.73;;;10.50;99.90;;;;;;5035638;28;20537;-83
2024/01/03 09:23:09;;;;;;;10.25;3.17;;;10.50;99.90;;;;;;5019444;28;20389;-83
2024/01/03 09:25:34;;;;;;;10.55;2.92;;;10.50;99.90;;;;;;5035715;28;20033;-83
2024/01/03 09:28:00;;;;;;;7.95;2.30;;;10.50;99.90;;;;;;5019191;28;20068;-83
2024/01/03 09:30:26;;;;;;;6.90;2.60;;;10.50;99.90;;;;;;5019364;28;20032;-83
2024/01/03 09:32:51;;;;;;;6.28;2.20;;;10.60;99.90;;;;;;5068606;28;20017;-84
2024/01/03 09:35:17;;;;;;;7.40;2.42;;;10.50;99.90;;;;;;5035372;28;20362;-83
2024/01/03 09:37:44;;;;;;;8.52;2.40;;;10.60;99.90;;;;;;5018782;28;20400;-83
2024/01/03 09:40:13;;;;;;;7.63;2.80;;;10.60;99.90;;;;;;5035086;28;20043;-83
2024/01/03 09:42:40;;;;;;;9.50;2.47;;;10.60;99.90;;;;;;5052497;28;20385;-83
2024/01/03 09:45:06;;;;;;;10.70;2.30;;;10.60;99.90;;;;;;5018706;28;20029;-84
2024/01/03 09:47:32;;;;;;;9.70;3.33;;;10.60;99.90;;;;;;5035705;28;20040;-87
2024/01/03 09:49:57;;;;;;;9.55;2.97;;;10.60;99.90;;;;;;5035224;28;20033;-82
2024/01/03 09:52:23;;;;;;;9.55;3.20;;;10.60;99.90;;;;;;5018534;28;20021;-82
2024/01/03 09:54:50;;;;;;;6.28;2.33;;;10.60;99.90;;;;;;5035604;28;20103;-83
2024/01/03 09:57:18;;;;;;;7.03;2.33;;;10.60;99.90;;;;;;5035410;28;20029;-83
2024/01/03 09:59:44;;;;;;;6.78;2.85;;;10.70;99.90;;;;;;5019054;28;20484;-83
2024/01/03 10:02:11;;;;;;;7.88;2.25;;;10.70;99.90;;;;;;5018846;28;20025;-83
2024/01/03 10:04:37;;;;;;;11.88;2.85;;;10.70;99.90;;;;;;5019163;28;20377;-83
2024/01/03 10:07:05;;;;;;;9.32;2.95;;;10.70;99.90;;;;;;5068429;28;20017;-83
2024/01/03 10:09:44;;;;;;;8.82;2.50;;;10.70;99.90;;;;;;5034953;28;20029;-82
2024/01/03 10:12:19;;;;;;;10.98;3.28;;;10.60;99.90;;;;;;5035471;28;20397;-83
2024/01/03 10:14:49;;;;;;;11.05;3.50;;;10.60;99.90;;;;;;5035612;28;20025;-82
2024/01/03 10:17:15;;;;;;;11.48;3.50;;;10.70;99.90;;;;;;5019925;28;20037;-83
2024/01/03 10:19:41;;;;;;;15.35;3.75;;;10.70;99.90;;;;;;5019251;28;20036;-83
2024/01/03 10:22:06;;;;;;;18.48;4.43;;;10.60;99.90;;;;;;5020155;28;20053;-83
2024/01/03 10:24:40;;;;;;;11.68;3.13;;;10.60;99.90;;;;;;5040275;28;20033;-83
2024/01/03 10:27:09;;;;;;;21.35;4.32;;;10.60;99.90;;;;;;5059269;28;20032;-83
2024/01/03 10:29:36;;;;;;;12.57;3.92;;;10.60;99.90;;;;;;5041339;28;20037;-83
2024/01/03 10:32:05;;;;;;;15.95;3.30;;;10.70;99.90;;;;;;5053587;28;20080;-83
2024/01/03 10:34:31;;;;;;;17.75;3.90;;;10.70;99.90;;;;;;5044081;28;20095;-83
2024/01/03 10:36:58;;;;;;;17.05;3.75;;;10.70;99.90;;;;;;5038559;28;20055;-84
2024/01/03 10:39:28;;;;;;;21.20;3.80;;;10.80;99.90;;;;;;5038833;28;20036;-84
2024/01/03 10:41:54;;;;;;;18.80;4.47;;;10.80;99.90;;;;;;5022322;28;20040;-83
2024/01/03 10:44:21;;;;;;;15.05;4.03;;;10.80;99.90;;;;;;5056478;28;20017;-84
2024/01/03 10:46:49;;;;;;;14.68;3.60;;;10.90;99.90;;;;;;5038384;28;20025;-83
2024/01/03 10:49:18;;;;;;;14.75;3.88;;;11.00;99.90;;;;;;5021957;28;20043;-83
2024/01/03 10:51:45;;;;;;;15.98;4.53;;;11.00;99.90;;;;;;5022118;28;20025;-84
2024/01/03 10:54:13;;;;;;;14.77;3.25;;;11.00;99.90;;;;;;5038187;28;20021;-83
2024/01/03 10:57:06;;;;;;;14.63;3.80;;;11.00;99.90;;;;;;5037987;28;20029;-83
2024/01/03 10:59:39;;;;;;;21.65;4.53;;;11.00;99.90;;;;;;5036719;28;20121;-84
2024/01/03 11:02:37;;;;;;;18.63;4.25;;;11.10;99.90;;;;;;5055879;28;20108;-84
2024/01/03 11:05:34;;;;;;;22.50;4.47;;;11.10;99.90;;;;;;5037808;28;20128;-84
2024/01/03 11:08:06;;;;;;;13.35;3.67;;;11.10;99.90;;;;;;5036720;28;20453;-84
2024/01/03 11:10:51;;;;;;;18.10;4.35;;;11.10;99.90;;;;;;5038032;28;20028;-83
2024/01/03 11:13:39;;;;;;;17.60;4.78;;;11.10;99.90;;;;;;5038075;28;20025;-83
2024/01/03 11:16:05;;;;;;;17.08;3.85;;;11.10;99.90;;;;;;5071154;28;20372;-84
2024/01/03 11:18:41;;;;;;;15.40;4.15;;;11.10;99.90;;;;;;5037507;28;20083;-83
2024/01/03 11:21:28;;;;;;;19.63;4.00;;;11.10;99.90;;;;;;5037470;28;20056;-83
2024/01/03 11:23:54;;;;;;;18.83;3.45;;;11.20;99.90;;;;;;5037934;28;20076;-83
2024/01/03 11:26:40;;;;;;;13.90;4.07;;;11.30;99.90;;;;;;5038089;28;20484;-83
2024/01/03 11:29:05;;;;;;;15.70;4.45;;;11.30;99.90;;;;;;5024386;28;20033;-84
2024/01/03 11:31:58;;;;;;;17.08;3.58;;;11.30;99.90;;;;;;5021234;28;20077;-83
2024/01/03 11:34:47;;;;;;;18.90;3.97;;;11.40;99.90;;;;;;5037698;28;20039;-84
2024/01/03 11:37:19;;;;;;;14.82;3.75;;;11.40;99.90;;;;;;5038362;28;20044;-84
2024/01/03 11:39:52;;;;;;;22.02;4.20;;;11.40;99.90;;;;;;5038146;28;20071;-84
2024/01/03 11:42:32;;;;;;;16.08;4.43;;;11.30;99.90;;;;;;5021807;28;20029;-83
2024/01/03 11:45:09;;;;;;;16.50;4.10;;;11.30;99.90;;;;;;5037912;28;20018;-83
2024/01/03 11:47:43;;;;;;;20.77;4.65;;;11.30;99.90;;;;;;5038416;28;20409;-83
2024/01/03 11:50:12;;;;;;;20.95;5.05;;;11.30;99.90;;;;;;5058880;28;20029;-83
2024/01/03 11:52:39;;;;;;;19.50;4.53;;;11.30;99.90;;;;;;5025282;28;20036;-83
2024/01/03 11:55:10;;;;;;;15.73;4.35;;;11.30;99.90;;;;;;5024851;28;20053;-83
2024/01/03 11:57:38;;;;;;;23.33;5.25;;;11.40;99.90;;;;;;5051861;28;20025;-83
2024/01/03 12:00:05;;;;;;;14.60;4.20;;;11.40;99.90;;;;;;5035175;28;20041;-83
2024/01/03 12:02:31;;;;;;;21.20;4.18;;;11.40;99.90;;;;;;5033814;28;20025;-83
2024/01/03 12:05:01;;;;;;;16.23;4.32;;;11.40;99.90;;;;;;5050529;28;20021;-83
2024/01/03 12:07:34;;;;;;;21.20;4.75;;;11.40;99.90;;;;;;5050604;28;20048;-84
2024/01/03 12:10:00;;;;;;;22.90;4.75;;;11.40;99.90;;;;;;5042065;28;20025;-84
2024/01/03 12:12:26;;;;;;;18.38;4.85;;;11.40;99.90;;;;;;5036980;28;20025;-84
2024/01/03 12:14:55;;;;;;;20.73;4.47;;;11.50;99.90;;;;;;5036294;28;20078;-84
2024/01/03 12:17:29;;;;;;;20.42;5.18;;;11.50;99.90;;;;;;5036902;28;20033;-84
2024/01/03 12:20:13;;;;;;;19.92;4.75;;;11.60;99.90;;;;;;5019893;28;20029;-83
2024/01/03 12:22:39;;;;;;;16.65;4.70;;;11.60;99.90;;;;;;5020543;28;20053;-84
2024/01/03 12:25:05;;;;;;;13.80;3.47;;;11.60;99.90;;;;;;5036240;28;20032;-84
2024/01/03 12:27:34;;;;;;;13.57;3.47;;;11.60;99.90;;;;;;5053077;28;20025;-84
2024/01/03 12:30:19;;;;;;;13.70;3.58;;;11.70;99.90;;;;;;5036540;28;20029;-84
2024/01/03 12:32:46;;;;;;;14.85;4.18;;;11.70;99.90;;;;;;5036197;28;20021;-84
2024/01/03 12:35:12;;;;;;;13.05;3.17;;;11.80;99.90;;;;;;5036608;28;20078;-84
2024/01/03 12:37:46;;;;;;;13.27;2.88;;;11.80;99.90;;;;;;5036285;28;20036;-83
2024/01/03 12:40:16;;;;;;;12.63;3.75;;;11.90;99.90;;;;;;5036385;28;20087;-84
2024/01/03 12:42:46;;;;;;;10.00;2.45;;;11.90;99.90;;;;;;5069191;28;20024;-84